Etusivu
METAR-TAF:

METAR-TAF

Lentoasemat :

Norwich, Englanti

Leveyspiiri: 52-38N, Pituuspiiri: 001-18E, korkeus merenpinnasta: 14 m

Tämänhetkinen sää

Tämä raportti tehtiin 16 minuuttia sitten, kello 15.20 UTC
Tuuli 3 kn eri suunnista
Lämpötila 15°C
Kosteus 72%
Ilmanpaine 1032 hPa
Näkyvyys 10 km tai enemmän
Hajanaisia pilviä 2000 ft:n korkeudessa
Hajanaisia pilviä 2600 ft:n korkeudessa
Hajonneita pilviä 3100 ft:n korkeudessa

METAR: EGSH 211520Z VRB03KT 9999 SCT020 SCT026 BKN031 15/10 Q1032 NOSIG

Aika: 15:36 (15:36 UTC)

Sääennuste

Tämä raportti tehtiin 1 tunti ja 37 minuuttia sitten, kello 13.59 UTC
Ennuste voimassa 21. päivästä klo 15 UTC - 21. päivään klo 24 UTC
Tuuli 7 kn lännestä
Näkyvyys 10 km tai enemmän
Hajanaisia pilviä 2000 ft:n korkeudessa
Todennäköisyys 40%
21. päivästä klo 21 UTC - 21. päivään klo 24 UTC
Näkyvyys: 8000 m

TAF: EGSH 211359Z 2115/2124 26007KT 9999 SCT020 PROB40 2121/2124 8000

Säähavainnot ja -ennusteet yli 4000 lentoasemalta (METAR- ja TAF-raportit).

Käytössä olevat sääasemat on merkitty karttaan keltaisilla ja punaisilla pisteillä.

Aseta hiiri pisteen päälle nähdäksesi sääaseman nimen.

Klikkaa sitten nähdäksesi säähavainnot ja -ennusteet.

Kartan vaihtaminen: klikkaa mustalla rastilla varustettuja vihreitä pisteitä, niin voit zoomata sisään; viivalla varustettua vihreää pistettä, niin voit zoomata ulos tai vihreitä nuolia, niin pääset viereisille kartoille.


METAR-TAF: